Time;durP1;ratioP1;P1;durP2;ratioP2;P2;SDS_P1;SDS_P2;PMS_P1;PMS_P2;Temp;Humidity;BMP_temperature;BMP_pressure;BME280_temperature;BME280_humidity;BME280_pressure;Samples;Min_cycle;Max_cycle;Signal;HPM_P1;HPM_P2
2022/06/01 00:01:01;;;;;;;18.65;16.75;;;;;;;;;;4361163;32;19946;-77
2022/06/01 00:03:28;;;;;;;;;;;;;;;;;;4362562;32;20023;-77
2022/06/01 00:05:54;;;;;;;;;;;;;;;;;;4362279;32;19943;-77
2022/06/01 00:08:21;;;;;;;13.05;11.23;;;;;;;;;;4362090;32;19966;-77
2022/06/01 00:10:54;;;;;;;14.10;10.30;;;;;;;;;;4362033;32;20027;-77
2022/06/01 00:13:20;;;;;;;14.55;10.48;;;;;;;;;;4363184;32;20081;-77
2022/06/01 00:15:46;;;;;;;10.60;9.50;;;;;;;;;;4361997;32;20023;-76
2022/06/01 00:18:11;;;;;;;;;;;;;;;;;;4348709;32;20081;-77
2022/06/01 00:20:37;;;;;;;8.75;7.45;;;;;;;;;;4362178;32;19938;-77
2022/06/01 00:23:02;;;;;;;;;;;;;;;;;;4362346;32;20027;-77
2022/06/01 00:25:28;;;;;;;8.23;6.82;;;;;;;;;;4361370;32;19954;-77
2022/06/01 00:27:53;;;;;;;;;;;;;;;;;;4360558;32;20119;-77
2022/06/01 00:30:19;;;;;;;11.23;8.65;;;;;;;;;;4361982;32;19950;-77
2022/06/01 00:32:47;;;;;;;;;;;;;;;;;;4361612;32;20116;-77
2022/06/01 00:35:13;;;;;;;9.57;7.22;;;;;;;;;;4360214;32;19938;-78
2022/06/01 00:37:38;;;;;;;9.32;8.20;;;;;;;;;;4361203;32;20077;-79
2022/06/01 00:40:05;;;;;;;11.68;8.65;;;;;;;;;;4361361;33;20385;-79
2022/06/01 00:42:31;;;;;;;10.82;8.00;;;;;;;;;;4361844;32;20121;-79
2022/06/01 00:44:56;;;;;;;9.55;8.55;;;;;;;;;;4361617;32;20101;-79
2022/06/01 00:47:23;;;;;;;8.52;7.68;;;;;;;;;;4361530;32;20032;-79
2022/06/01 00:49:51;;;;;;;11.38;8.43;;;;;;;;;;4361091;32;20027;-79
2022/06/01 00:52:35;;;;;;;10.27;7.47;;;;;;;;;;4361009;32;20032;-79
2022/06/01 00:55:05;;;;;;;7.57;6.87;;;;;;;;;;4361486;32;20055;-79
2022/06/01 00:57:31;;;;;;;8.63;7.10;;;;;;;;;;4361466;32;20050;-79
2022/06/01 00:59:57;;;;;;;9.25;7.70;;;;;;;;;;4361620;32;20365;-79
2022/06/01 01:02:23;;;;;;;;;;;;;;;;;;4361641;32;20049;-79
2022/06/01 01:04:48;;;;;;;8.27;7.12;;;;;;;;;;4361202;32;19957;-79
2022/06/01 01:07:13;;;;;;;8.95;7.93;;;;;;;;;;4361382;32;20023;-79
2022/06/01 01:09:38;;;;;;;;;;;;;;;;;;4361147;32;20422;-79
2022/06/01 01:12:06;;;;;;;10.25;8.30;;;;;;;;;;4361090;32;19976;-79
2022/06/01 01:14:34;;;;;;;9.05;8.15;;;;;;;;;;4361087;32;20031;-79
2022/06/01 01:16:59;;;;;;;9.18;7.78;;;;;;;;;;4360750;32;20070;-79
2022/06/01 01:19:24;;;;;;;;;;;;;;;;;;4361667;32;20095;-79
2022/06/01 01:22:00;;;;;;;9.30;7.68;;;;;;;;;;4360814;32;19973;-79
2022/06/01 01:24:28;;;;;;;9.20;7.82;;;;;;;;;;4360630;32;20459;-79
2022/06/01 01:26:56;;;;;;;8.98;8.07;;;;;;;;;;4361088;32;20053;-79
2022/06/01 01:29:43;;;;;;;10.32;9.05;;;;;;;;;;4360484;32;20023;-79
2022/06/01 01:32:10;;;;;;;11.77;9.35;;;;;;;;;;4361299;32;20089;-79
2022/06/01 01:34:37;;;;;;;9.48;8.35;;;;;;;;;;4360953;32;20095;-79
2022/06/01 01:37:22;;;;;;;10.77;7.87;;;;;;;;;;4361022;32;20418;-79
2022/06/01 01:39:49;;;;;;;8.43;6.93;;;;;;;;;;4359973;32;20031;-78
2022/06/01 01:42:15;;;;;;;10.40;9.20;;;;;;;;;;4360825;33;20030;-78
2022/06/01 01:44:40;;;;;;;;;;;;;;;;;;4360683;32;20385;-79
2022/06/01 01:47:07;;;;;;;8.85;7.93;;;;;;;;;;4361297;32;19939;-79
2022/06/01 01:49:33;;;;;;;9.13;7.85;;;;;;;;;;4360361;32;20154;-79
2022/06/01 01:52:03;;;;;;;12.45;8.75;;;;;;;;;;4361955;32;20406;-79
2022/06/01 01:54:42;;;;;;;14.68;11.82;;;;;;;;;;4360776;32;20031;-79
2022/06/01 01:57:14;;;;;;;16.75;13.60;;;;;;;;;;4360788;32;20110;-79
2022/06/01 01:59:53;;;;;;;17.77;15.95;;;;;;;;;;4362127;32;20306;-78
2022/06/01 02:02:22;;;;;;;17.33;14.25;;;;;;;;;;4360629;32;20093;-79
2022/06/01 02:07:50;;;;;;;15.75;13.57;;;;;;;;;;4360645;32;20042;-79
2022/06/01 02:13:00;;;;;;;18.25;14.77;;;;;;;;;;4360855;33;20468;-79
2022/06/01 02:15:36;;;;;;;16.37;14.60;;;;;;;;;;4360567;33;20058;-79
2022/06/01 02:18:16;;;;;;;19.48;15.65;;;;;;;;;;4346680;33;20023;-79
2022/06/01 02:20:44;;;;;;;17.73;14.38;;;;;;;;;;4359954;33;20040;-79
2022/06/01 02:23:13;;;;;;;14.07;12.68;;;;;;;;;;4346982;33;20085;-79
2022/06/01 02:25:40;;;;;;;14.98;13.05;;;;;;;;;;4347342;33;20022;-79
2022/06/01 02:28:05;;;;;;;19.20;16.52;;;;;;;;;;4360399;33;20023;-78
2022/06/01 02:30:33;;;;;;;;;;;;;;;;;;4360899;33;20023;-79
2022/06/01 02:33:00;;;;;;;18.58;15.98;;;;;;;;;;4359912;33;19976;-79
2022/06/01 02:35:26;;;;;;;19.10;17.15;;;;;;;;;;4360356;32;20070;-79
2022/06/01 02:37:54;;;;;;;22.62;19.67;;;;;;;;;;4363697;32;20031;-79
2022/06/01 02:40:21;;;;;;;20.95;17.65;;;;;;;;;;4361903;32;20035;-79
2022/06/01 02:42:50;;;;;;;23.95;20.48;;;;;;;;;;4362762;33;20053;-79
2022/06/01 02:45:16;;;;;;;34.60;23.60;;;;;;;;;;4362879;32;20027;-79
2022/06/01 02:47:43;;;;;;;35.55;28.27;;;;;;;;;;4363298;32;20027;-78
2022/06/01 02:50:12;;;;;;;40.10;28.42;;;;;;;;;;4363200;32;20102;-78
2022/06/01 02:52:38;;;;;;;28.80;20.75;;;;;;;;;;4363508;32;20382;-78
2022/06/01 02:55:05;;;;;;;25.30;20.17;;;;;;;;;;4363367;32;20019;-78
2022/06/01 02:57:31;;;;;;;16.80;13.52;;;;;;;;;;4362936;32;20420;-78
2022/06/01 02:59:57;;;;;;;;;;;;;;;;;;4363287;32;20027;-78
2022/06/01 03:02:22;;;;;;;13.20;10.02;;;;;;;;;;4349226;33;19949;-78
2022/06/01 03:04:48;;;;;;;;;;;;;;;;;;4363026;32;20085;-78
2022/06/01 03:07:18;;;;;;;7.53;5.50;;;;;;;;;;4362495;32;20280;-78
2022/06/01 03:09:44;;;;;;;12.93;7.15;;;;;;;;;;4362738;32;20046;-78
2022/06/01 03:12:09;;;;;;;;;;;;;;;;;;4363033;32;20050;-78
2022/06/01 03:14:38;;;;;;;11.40;8.52;;;;;;;;;;4362475;32;19950;-78
2022/06/01 03:17:05;;;;;;;16.60;12.90;;;;;;;;;;4362714;32;20061;-78
2022/06/01 03:19:30;;;;;;;18.52;13.15;;;;;;;;;;4362420;32;20059;-77
2022/06/01 03:21:56;;;;;;;;;;;;;;;;;;4361423;32;20049;-78
2022/06/01 03:24:21;;;;;;;12.82;9.60;;;;;;;;;;4348703;33;20276;-78
2022/06/01 03:26:46;;;;;;;;;;;;;;;;;;4363045;32;20092;-78
2022/06/01 03:29:12;;;;;;;10.23;7.53;;;;;;;;;;4362847;32;19972;-77
2022/06/01 03:31:37;;;;;;;;;;;;;;;;;;4363163;32;20023;-76
2022/06/01 03:34:03;;;;;;;6.25;5.30;;;;;;;;;;4362195;32;19934;-77
2022/06/01 03:36:28;;;;;;;;;;;;;;;;;;4362331;32;20053;-77
2022/06/01 03:38:53;;;;;;;7.47;4.82;;;;;;;;;;4362009;32;19973;-77
2022/06/01 03:41:19;;;;;;;;;;;;;;;;;;4362993;32;20035;-77
2022/06/01 03:46:31;;;;;;;9.13;6.45;;;;;;;;;;4362298;32;20037;-76
2022/06/01 03:48:57;;;;;;;11.18;5.55;;;;;;;;;;4361446;33;20142;-77
2022/06/01 03:51:24;;;;;;;;;;;;;;;;;;4361038;32;20426;-76
2022/06/01 03:53:49;;;;;;;9.50;6.28;;;;;;;;;;4361715;32;19934;-76
2022/06/01 03:56:15;;;;;;;;;;;;;;;;;;4362639;32;20154;-76
2022/06/01 03:58:40;;;;;;;10.63;7.05;;;;;;;;;;4348406;33;19946;-78
2022/06/01 04:01:06;;;;;;;;;;;;;;;;;;4362002;32;20162;-77
2022/06/01 04:03:48;;;;;;;8.23;5.32;;;;;;;;;;4361904;32;19956;-77
2022/06/01 04:06:14;;;;;;;11.43;6.32;;;;;;;;;;4360743;32;20039;-77
2022/06/01 04:08:39;;;;;;;;;;;;;;;;;;4362316;32;20054;-77
2022/06/01 04:11:05;;;;;;;5.57;4.68;;;;;;;;;;4361705;32;20394;-76
2022/06/01 04:13:30;;;;;;;;;;;;;;;;;;4360713;32;20082;-76
2022/06/01 04:15:55;;;;;;;5.82;5.20;;;;;;;;;;4362110;32;19955;-78
2022/06/01 04:18:21;;;;;;;;;;;;;;;;;;4362234;33;20057;-78
2022/06/01 04:20:47;;;;;;;7.00;5.95;;;;;;;;;;4347874;33;19993;-78
2022/06/01 04:23:13;;;;;;;7.82;5.82;;;;;;;;;;4361551;32;20103;-78
2022/06/01 04:25:38;;;;;;;;;;;;;;;;;;4361978;32;20046;-77
2022/06/01 04:28:04;;;;;;;8.73;4.93;;;;;;;;;;4361695;32;19938;-77
2022/06/01 04:30:29;;;;;;;;;;;;;;;;;;4360513;32;20119;-77
2022/06/01 04:32:55;;;;;;;6.72;5.50;;;;;;;;;;4361569;32;19935;-77
2022/06/01 04:35:20;;;;;;;;;;;;;;;;;;4362598;32;20170;-77
2022/06/01 04:37:45;;;;;;;8.77;6.57;;;;;;;;;;4361683;32;19991;-78
2022/06/01 04:40:10;;;;;;;;;;;;;;;;;;4361837;32;20081;-79
2022/06/01 04:42:38;;;;;;;9.00;5.97;;;;;;;;;;4361884;32;19946;-78
2022/06/01 04:45:04;;;;;;;7.50;6.40;;;;;;;;;;4361105;33;20099;-78
2022/06/01 04:47:29;;;;;;;;;;;;;;;;;;4361846;32;20023;-77
2022/06/01 04:49:55;;;;;;;6.28;5.18;;;;;;;;;;4361516;32;19957;-78
2022/06/01 04:52:20;;;;;;;;;;;;;;;;;;4361824;32;20214;-77
2022/06/01 04:54:45;;;;;;;6.03;5.35;;;;;;;;;;4360963;32;19952;-77
2022/06/01 04:57:10;;;;;;;;;;;;;;;;;;4362061;32;20046;-78
2022/06/01 04:59:41;;;;;;;6.54;5.86;;;;;;;;;;4360731;32;19972;-78
2022/06/01 05:02:07;;;;;;;7.40;5.37;;;;;;;;;;4361056;33;20049;-78
2022/06/01 05:04:32;;;;;;;;;;;;;;;;;;4361544;32;20031;-78
2022/06/01 05:06:58;;;;;;;7.35;4.60;;;;;;;;;;4361304;32;19953;-78
2022/06/01 05:09:23;;;;;;;;;;;;;;;;;;4361084;32;20039;-77
2022/06/01 05:11:48;;;;;;;8.40;4.97;;;;;;;;;;4361824;32;19953;-77
2022/06/01 05:14:16;;;;;;;;;;;;;;;;;;4362278;32;20058;-77
2022/06/01 05:16:41;;;;;;;8.27;6.10;;;;;;;;;;4361281;32;19938;-78
2022/06/01 05:19:07;;;;;;;;;;;;;;;;;;4361323;32;20105;-78
2022/06/01 05:21:32;;;;;;;7.65;6.90;;;;;;;;;;4360659;32;19969;-78
2022/06/01 05:23:57;;;;;;;;;;;;;;;;;;4359970;33;20078;-77
2022/06/01 05:26:23;;;;;;;10.05;8.40;;;;;;;;;;4360446;32;19973;-77
2022/06/01 05:28:48;;;;;;;;;;;;;;;;;;4361115;32;20103;-78
2022/06/01 05:31:14;;;;;;;11.05;9.90;;;;;;;;;;4360733;32;20297;-78
2022/06/01 05:33:39;;;;;;;;;;;;;;;;;;4361283;32;20081;-77
2022/06/01 05:36:05;;;;;;;11.23;10.02;;;;;;;;;;4359602;32;19983;-77
2022/06/01 05:38:30;;;;;;;14.70;11.55;;;;;;;;;;4360349;32;20108;-78
2022/06/01 05:41:05;;;;;;;;;;;;;;;;;;4360551;32;20106;-78
2022/06/01 05:43:35;;;;;;;17.37;12.90;;;;;;;;;;4361048;32;20400;-78
2022/06/01 05:46:01;;;;;;;16.58;13.80;;;;;;;;;;4360882;32;20062;-77
2022/06/01 05:48:27;;;;;;;26.15;16.25;;;;;;;;;;4360539;33;20058;-77
2022/06/01 05:50:52;;;;;;;;;;;;;;;;;;4360350;33;20035;-77
2022/06/01 05:53:17;;;;;;;19.63;16.63;;;;;;;;;;4360308;32;19998;-77
2022/06/01 05:55:42;;;;;;;;;;;;;;;;;;4360230;32;20116;-77
2022/06/01 05:58:12;;;;;;;22.92;15.57;;;;;;;;;;4360768;32;19973;-77
2022/06/01 06:00:37;;;;;;;18.42;14.13;;;;;;;;;;4360596;32;20043;-77
2022/06/01 06:03:03;;;;;;;19.45;12.63;;;;;;;;;;4360240;32;20073;-77
2022/06/01 06:08:14;;;;;;;18.40;14.00;;;;;;;;;;4360093;32;19941;-77
2022/06/01 06:10:39;;;;;;;16.25;14.55;;;;;;;;;;4359441;32;20027;-77
2022/06/01 06:13:05;;;;;;;22.17;15.07;;;;;;;;;;4360276;33;20161;-78
2022/06/01 06:15:30;;;;;;;16.95;14.20;;;;;;;;;;4359698;33;20062;-78
2022/06/01 06:17:55;;;;;;;;;;;;;;;;;;4360041;32;20054;-77
2022/06/01 06:20:20;;;;;;;19.23;11.35;;;;;;;;;;4359577;33;20325;-77
2022/06/01 06:22:51;;;;;;;;;;;;;;;;;;4359772;32;20368;-77
2022/06/01 06:25:17;;;;;;;15.50;10.77;;;;;;;;;;4359972;33;19935;-76
2022/06/01 06:27:42;;;;;;;15.48;10.30;;;;;;;;;;4360671;33;20382;-77
2022/06/01 06:30:07;;;;;;;;;;;;;;;;;;4360253;33;20080;-77
2022/06/01 06:32:33;;;;;;;12.45;10.68;;;;;;;;;;4359972;33;19977;-76
2022/06/01 06:35:01;;;;;;;;;;;;;;;;;;4360605;32;20027;-73
2022/06/01 06:37:28;;;;;;;9.90;8.48;;;;;;;;;;4360198;33;19943;-77
2022/06/01 06:39:54;;;;;;;11.95;7.43;;;;;;;;;;4360179;33;20039;-78
2022/06/01 06:42:30;;;;;;;11.38;6.55;;;;;;;;;;4363184;33;20140;-77
2022/06/01 06:44:55;;;;;;;8.07;6.40;;;;;;;;;;4361587;33;20029;-77
2022/06/01 06:47:20;;;;;;;;;;;;;;;;;;4359096;33;20051;-78
2022/06/01 06:49:46;;;;;;;6.95;5.80;;;;;;;;;;4360297;33;20268;-78
2022/06/01 06:52:11;;;;;;;6.70;5.85;;;;;;;;;;4359737;33;20356;-77
2022/06/01 06:54:36;;;;;;;8.68;4.70;;;;;;;;;;4360445;33;20381;-78
2022/06/01 06:57:01;;;;;;;;;;;;;;;;;;4360663;33;20097;-77
2022/06/01 06:59:30;;;;;;;9.27;4.50;;;;;;;;;;4359966;32;19938;-77
2022/06/01 07:01:55;;;;;;;5.45;4.37;;;;;;;;;;4360260;32;20123;-78
2022/06/01 07:04:36;;;;;;;7.05;4.18;;;;;;;;;;4360178;33;20059;-78
2022/06/01 07:07:03;;;;;;;5.43;4.07;;;;;;;;;;4360068;33;20377;-78
2022/06/01 07:09:29;;;;;;;8.50;4.20;;;;;;;;;;4359500;33;20053;-78
2022/06/01 07:11:54;;;;;;;5.87;4.12;;;;;;;;;;4359896;32;20047;-77
2022/06/01 07:14:19;;;;;;;;;;;;;;;;;;4359883;33;20057;-78
2022/06/01 07:16:45;;;;;;;9.23;4.65;;;;;;;;;;4346149;32;19938;-77
2022/06/01 07:19:10;;;;;;;;;;;;;;;;;;4360021;32;20027;-79
2022/06/01 07:21:39;;;;;;;7.30;3.90;;;;;;;;;;4346969;33;19938;-77
2022/06/01 07:24:05;;;;;;;7.35;3.58;;;;;;;;;;4362362;32;20154;-78
2022/06/01 07:26:36;;;;;;;4.85;3.03;;;;;;;;;;4362713;32;20055;-77
2022/06/01 07:29:02;;;;;;;5.53;3.62;;;;;;;;;;4362389;32;20035;-78
2022/06/01 07:31:28;;;;;;;5.55;3.15;;;;;;;;;;4361091;33;20050;-77
2022/06/01 07:33:55;;;;;;;;;;;;;;;;;;4362403;33;20034;-77
2022/06/01 07:36:21;;;;;;;3.35;2.45;;;;;;;;;;4362386;32;20021;-77
2022/06/01 07:44:28;;;;;;;4.32;2.92;;;;;;;;;;4362864;32;20048;-77
2022/06/01 07:46:54;;;;;;;3.55;2.83;;;;;;;;;;4362537;32;20039;-76
2022/06/01 07:49:38;;;;;;;;;;;;;;;;;;;;;
2022/06/01 07:52:07;;;;;;;7.90;3.25;;;;;;;;;;4346317;32;20031;-77
2022/06/01 07:54:34;;;;;;;7.60;3.30;;;;;;;;;;4361582;33;20360;-77
2022/06/01 07:57:00;;;;;;;6.12;2.83;;;;;;;;;;4361857;32;20031;-78
2022/06/01 07:59:25;;;;;;;6.93;3.08;;;;;;;;;;4362134;32;20057;-77
2022/06/01 08:01:50;;;;;;;6.22;2.67;;;;;;;;;;4360616;32;20478;-77
2022/06/01 08:04:16;;;;;;;7.62;2.60;;;;;;;;;;4361573;32;20042;-78
2022/06/01 08:06:41;;;;;;;4.40;2.70;;;;;;;;;;4362313;32;20054;-77
2022/06/01 08:09:10;;;;;;;7.15;2.70;;;;;;;;;;4364313;32;20377;-77
2022/06/01 08:14:19;;;;;;;4.87;2.67;;;;;;;;;;4365798;32;20186;-76
2022/06/01 08:16:45;;;;;;;5.57;2.50;;;;;;;;;;4363420;33;20024;-77
2022/06/01 08:19:31;;;;;;;6.90;2.30;;;;;;;;;;4363437;32;20381;-76
2022/06/01 08:21:56;;;;;;;3.40;2.35;;;;;;;;;;4364255;32;20061;-78
2022/06/01 08:27:14;;;;;;;2.65;2.05;;;;;;;;;;4302303;33;20054;-76
2022/06/01 08:29:39;;;;;;;3.22;1.98;;;;;;;;;;4361480;32;20015;-76
2022/06/01 08:32:05;;;;;;;7.97;2.35;;;;;;;;;;4364277;32;20024;-78
2022/06/01 08:34:31;;;;;;;4.37;2.33;;;;;;;;;;4362067;32;20116;-77
2022/06/01 08:36:57;;;;;;;5.87;2.45;;;;;;;;;;4362417;32;20039;-78
2022/06/01 08:39:22;;;;;;;7.97;2.58;;;;;;;;;;4364287;32;20035;-76
2022/06/01 08:41:48;;;;;;;4.97;2.20;;;;;;;;;;4364652;32;20024;-78
2022/06/01 08:44:19;;;;;;;6.10;2.37;;;;;;;;;;4362868;32;20020;-79
2022/06/01 08:46:45;;;;;;;3.03;2.72;;;;;;;;;;4362241;32;20447;-76
2022/06/01 08:49:14;;;;;;;4.35;2.42;;;;;;;;;;4361734;32;20058;-75
2022/06/01 08:51:39;;;;;;;4.93;2.15;;;;;;;;;;4361501;32;20024;-76
2022/06/01 08:54:04;;;;;;;3.20;1.92;;;;;;;;;;4362085;32;20061;-78
2022/06/01 08:56:33;;;;;;;2.65;2.00;;;;;;;;;;4362713;32;20116;-76
2022/06/01 08:59:21;;;;;;;4.50;2.97;;;;;;;;;;4362323;32;20031;-77
2022/06/01 09:02:02;;;;;;;4.78;1.95;;;;;;;;;;4362132;32;20024;-76
2022/06/01 09:04:46;;;;;;;3.45;2.00;;;;;;;;;;4361970;32;20109;-78
2022/06/01 09:07:20;;;;;;;5.15;2.20;;;;;;;;;;4360634;32;20031;-76
2022/06/01 09:09:53;;;;;;;3.40;2.10;;;;;;;;;;4363493;32;20340;-75
2022/06/01 09:15:21;;;;;;;4.20;2.22;;;;;;;;;;4367880;32;20042;-77
2022/06/01 09:17:46;;;;;;;4.55;1.92;;;;;;;;;;4367645;32;20151;-76
2022/06/01 09:23:00;;;;;;;2.58;1.70;;;;;;;;;;4370156;32;20089;-77
2022/06/01 09:25:32;;;;;;;4.53;2.12;;;;;;;;;;4355809;33;20076;-75
2022/06/01 09:28:01;;;;;;;3.17;1.90;;;;;;;;;;4369640;32;20023;-76
2022/06/01 09:30:35;;;;;;;5.15;2.05;;;;;;;;;;4369216;32;20049;-76
2022/06/01 09:33:22;;;;;;;2.95;1.60;;;;;;;;;;4368910;32;20127;-75
2022/06/01 09:36:05;;;;;;;4.20;1.70;;;;;;;;;;4367714;32;20023;-77
2022/06/01 09:38:36;;;;;;;4.18;1.90;;;;;;;;;;4368255;32;20093;-75
2022/06/01 09:41:06;;;;;;;4.43;2.03;;;;;;;;;;4367999;33;20058;-77
2022/06/01 09:43:31;;;;;;;2.67;1.80;;;;;;;;;;4366509;32;20066;-76
2022/06/01 09:45:57;;;;;;;9.05;2.08;;;;;;;;;;4365346;32;20076;-77
2022/06/01 09:48:23;;;;;;;3.78;1.70;;;;;;;;;;4364422;32;20345;-77
2022/06/01 09:51:09;;;;;;;7.25;2.65;;;;;;;;;;4362141;32;20054;-76
2022/06/01 09:53:39;;;;;;;4.80;1.60;;;;;;;;;;4348924;33;20081;-78
2022/06/01 09:56:04;;;;;;;4.12;1.95;;;;;;;;;;4361421;32;20073;-77
2022/06/01 10:07:19;;;;;;;2.17;1.70;;;;;;;;;;4361136;32;20074;-78
2022/06/01 10:09:51;;;;;;;4.78;1.75;;;;;;;;;;4360568;32;20050;-78
2022/06/01 10:12:23;;;;;;;3.60;2.45;;;;;;;;;;4360419;33;20077;-77
2022/06/01 10:14:53;;;;;;;2.25;1.55;;;;;;;;;;4360357;33;20027;-76
2022/06/01 10:17:18;;;;;;;6.78;3.20;;;;;;;;;;4359812;33;20047;-77
2022/06/01 10:19:51;;;;;;;4.22;2.10;;;;;;;;;;4361075;33;20024;-77
2022/06/01 10:22:30;;;;;;;3.45;2.10;;;;;;;;;;4360514;33;20023;-77
2022/06/01 10:25:16;;;;;;;2.28;1.62;;;;;;;;;;4360675;32;20122;-78
2022/06/01 10:28:02;;;;;;;3.95;1.50;;;;;;;;;;4347494;33;20393;-77
2022/06/01 10:30:34;;;;;;;3.53;1.80;;;;;;;;;;4360515;33;20019;-76
2022/06/01 10:33:04;;;;;;;4.35;2.33;;;;;;;;;;4360881;32;20031;-76
2022/06/01 10:35:34;;;;;;;2.90;1.92;;;;;;;;;;4360592;33;20069;-76
2022/06/01 10:38:20;;;;;;;2.58;2.00;;;;;;;;;;4360320;33;20099;-76
2022/06/01 10:40:45;;;;;;;5.12;2.12;;;;;;;;;;4351517;33;20043;-77
2022/06/01 10:43:21;;;;;;;4.62;1.98;;;;;;;;;;4361438;33;20058;-77
2022/06/01 10:45:47;;;;;;;;;;;;;;;;;;4360945;33;20030;-76
2022/06/01 10:48:33;;;;;;;1.70;1.60;;;;;;;;;;4360946;33;19938;-76
2022/06/01 10:51:02;;;;;;;4.75;2.00;;;;;;;;;;4360360;33;20085;-77
2022/06/01 10:53:46;;;;;;;5.00;2.30;;;;;;;;;;4360730;32;20438;-76
2022/06/01 10:56:12;;;;;;;4.32;2.47;;;;;;;;;;4358808;32;20417;-77
2022/06/01 10:58:38;;;;;;;4.50;1.77;;;;;;;;;;4363667;32;20024;-78
2022/06/01 11:01:13;;;;;;;3.05;1.73;;;;;;;;;;4363214;32;20078;-76
2022/06/01 11:03:49;;;;;;;3.58;1.87;;;;;;;;;;4362568;33;20031;-77
2022/06/01 11:06:15;;;;;;;;;;;;;;;;;;4363685;32;20027;-78
2022/06/01 11:09:09;;;;;;;2.50;1.90;;;;;;;;;;4364133;32;19985;-76
2022/06/01 11:12:04;;;;;;;4.55;1.98;;;;;;;;;;4358055;33;20027;-76
2022/06/01 11:14:29;;;;;;;3.58;1.90;;;;;;;;;;4352640;32;20034;-75
2022/06/01 11:17:14;;;;;;;1.87;1.65;;;;;;;;;;4362719;32;20074;-76
2022/06/01 11:19:58;;;;;;;2.80;2.28;;;;;;;;;;4362343;32;20123;-76
2022/06/01 11:22:44;;;;;;;5.75;3.00;;;;;;;;;;4362126;32;20035;-76
2022/06/01 11:25:15;;;;;;;4.78;2.58;;;;;;;;;;4362732;33;20046;-76
2022/06/01 11:27:41;;;;;;;3.12;2.33;;;;;;;;;;4363183;32;20088;-76
2022/06/01 11:30:06;;;;;;;3.60;2.28;;;;;;;;;;4362427;32;20027;-76
2022/06/01 11:32:39;;;;;;;5.03;2.15;;;;;;;;;;4362815;32;20472;-78
2022/06/01 11:35:16;;;;;;;4.50;1.92;;;;;;;;;;4361846;32;20413;-77
2022/06/01 11:37:54;;;;;;;4.00;2.70;;;;;;;;;;4362982;32;20417;-76
2022/06/01 11:40:39;;;;;;;4.95;2.42;;;;;;;;;;4362500;32;20038;-78
2022/06/01 11:43:16;;;;;;;7.43;4.90;;;;;;;;;;4345463;33;20081;-76
2022/06/01 11:45:47;;;;;;;5.78;2.80;;;;;;;;;;4362744;32;20051;-77
2022/06/01 11:48:13;;;;;;;5.82;3.00;;;;;;;;;;4362067;32;20054;-76
2022/06/01 11:50:44;;;;;;;5.43;2.37;;;;;;;;;;4362288;32;20031;-77
2022/06/01 11:53:11;;;;;;;8.30;3.10;;;;;;;;;;4362470;32;20028;-75
2022/06/01 11:55:37;;;;;;;3.50;2.70;;;;;;;;;;4362352;32;20077;-77
2022/06/01 11:58:07;;;;;;;4.18;2.22;;;;;;;;;;4361959;32;20043;-78
2022/06/01 12:00:33;;;;;;;4.43;2.87;;;;;;;;;;4347914;33;20039;-76
2022/06/01 12:03:33;;;;;;;6.40;3.58;;;;;;;;;;4361476;32;20027;-74
2022/06/01 12:06:17;;;;;;;5.12;2.60;;;;;;;;;;4300942;33;20052;-76
2022/06/01 12:08:56;;;;;;;3.35;3.00;;;;;;;;;;4355309;32;20053;-76
2022/06/01 12:11:43;;;;;;;5.30;3.60;;;;;;;;;;4361193;32;20077;-73
2022/06/01 12:14:20;;;;;;;7.40;5.18;;;;;;;;;;4362349;32;20023;-76
2022/06/01 12:16:45;;;;;;;7.25;5.12;;;;;;;;;;4362643;32;20046;-77
2022/06/01 12:20:16;;;;;;;6.53;4.62;;;;;;;;;;4361468;32;20051;-77
2022/06/01 12:28:31;;;;;;;6.95;4.40;;;;;;;;;;4361613;32;20099;-76
2022/06/01 12:31:08;;;;;;;7.45;4.10;;;;;;;;;;4361492;33;20019;-76
2022/06/01 12:33:34;;;;;;;4.65;3.85;;;;;;;;;;4361398;32;20019;-74
2022/06/01 12:36:00;;;;;;;6.85;4.60;;;;;;;;;;4361280;32;20080;-71
2022/06/01 12:38:36;;;;;;;5.47;3.90;;;;;;;;;;4360876;32;20031;-76
2022/06/01 12:41:16;;;;;;;5.78;5.03;;;;;;;;;;4361072;33;20039;-75
2022/06/01 12:43:45;;;;;;;7.35;5.47;;;;;;;;;;4360835;32;20067;-77
2022/06/01 12:46:24;;;;;;;7.35;4.20;;;;;;;;;;4347141;33;20519;-77
2022/06/01 12:48:49;;;;;;;8.98;4.97;;;;;;;;;;4360704;32;20024;-76
2022/06/01 12:51:15;;;;;;;6.37;3.95;;;;;;;;;;4359717;32;20496;-74
2022/06/01 12:53:51;;;;;;;5.70;4.15;;;;;;;;;;4360616;32;20061;-77
2022/06/01 12:56:16;;;;;;;;;;;;;;;;;;4361327;33;20338;-77
2022/06/01 12:58:43;;;;;;;4.37;2.70;;;;;;;;;;4361521;32;19934;-73
2022/06/01 13:01:14;;;;;;;7.75;3.78;;;;;;;;;;4360738;32;20334;-78
2022/06/01 13:03:43;;;;;;;4.82;3.10;;;;;;;;;;4361214;33;20073;-75
2022/06/01 13:06:16;;;;;;;3.22;2.60;;;;;;;;;;4360854;32;20089;-77
2022/06/01 13:08:42;;;;;;;4.75;2.35;;;;;;;;;;4360903;32;20100;-76
2022/06/01 13:11:24;;;;;;;2.90;1.90;;;;;;;;;;4360466;32;20434;-77
2022/06/01 13:13:51;;;;;;;3.35;2.17;;;;;;;;;;4360482;32;20027;-78
2022/06/01 13:16:18;;;;;;;6.25;2.50;;;;;;;;;;4360355;32;20058;-76
2022/06/01 13:18:44;;;;;;;3.03;2.33;;;;;;;;;;4361645;32;20044;-76
2022/06/01 13:21:15;;;;;;;5.30;2.83;;;;;;;;;;4360376;32;20059;-76
2022/06/01 13:23:44;;;;;;;4.82;3.35;;;;;;;;;;4360508;32;20583;-77
2022/06/01 13:26:14;;;;;;;4.25;3.20;;;;;;;;;;4347858;33;20413;-77
2022/06/01 13:28:43;;;;;;;8.43;3.45;;;;;;;;;;4360296;33;20023;-76
2022/06/01 13:31:08;;;;;;;5.45;4.12;;;;;;;;;;4360398;32;20386;-76
2022/06/01 13:33:43;;;;;;;5.12;4.28;;;;;;;;;;4360638;32;20031;-75
2022/06/01 13:36:10;;;;;;;6.12;4.72;;;;;;;;;;4359550;32;20016;-74
2022/06/01 13:38:48;;;;;;;5.43;4.93;;;;;;;;;;4346553;33;20089;-76
2022/06/01 13:41:21;;;;;;;7.00;4.07;;;;;;;;;;4360255;33;20062;-77
2022/06/01 13:43:48;;;;;;;6.55;3.35;;;;;;;;;;4361025;32;20057;-77
2022/06/01 13:46:25;;;;;;;4.40;2.95;;;;;;;;;;4358540;32;20058;-76
2022/06/01 13:48:55;;;;;;;6.60;3.65;;;;;;;;;;4361189;32;20177;-75
2022/06/01 13:51:24;;;;;;;6.40;4.20;;;;;;;;;;4360415;32;20185;-76
2022/06/01 13:53:49;;;;;;;9.70;4.65;;;;;;;;;;4361008;32;20110;-75
2022/06/01 13:56:21;;;;;;;6.65;3.62;;;;;;;;;;4359252;32;20339;-73
2022/06/01 13:58:59;;;;;;;7.57;4.25;;;;;;;;;;4359934;33;20053;-77
2022/06/01 14:01:27;;;;;;;8.07;4.68;;;;;;;;;;4360409;33;20019;-76
2022/06/01 14:03:56;;;;;;;5.80;3.75;;;;;;;;;;4360379;32;20027;-74
2022/06/01 14:06:38;;;;;;;6.55;3.78;;;;;;;;;;4360023;32;20133;-77
2022/06/01 14:09:04;;;;;;;7.57;3.72;;;;;;;;;;4359887;33;20031;-75
2022/06/01 14:11:31;;;;;;;5.28;3.05;;;;;;;;;;4346615;33;20042;-75
2022/06/01 14:13:59;;;;;;;4.45;3.15;;;;;;;;;;4359833;32;20031;-75
2022/06/01 14:16:24;;;;;;;4.68;3.47;;;;;;;;;;4359599;32;20035;-75
2022/06/01 14:19:00;;;;;;;5.28;2.70;;;;;;;;;;4360172;33;20405;-77
2022/06/01 14:21:26;;;;;;;11.25;3.30;;;;;;;;;;4360786;33;20050;-75
2022/06/01 14:23:52;;;;;;;4.12;2.28;;;;;;;;;;4359908;33;20067;-73
2022/06/01 14:29:05;;;;;;;4.93;2.58;;;;;;;;;;4360298;32;20050;-74
2022/06/01 14:31:34;;;;;;;7.90;2.90;;;;;;;;;;4360746;32;20024;-77
2022/06/01 14:34:00;;;;;;;9.20;3.62;;;;;;;;;;4363051;32;20061;-76
2022/06/01 14:36:27;;;;;;;4.53;2.70;;;;;;;;;;4363232;32;20409;-76
2022/06/01 14:38:52;;;;;;;5.53;2.78;;;;;;;;;;4362857;32;20061;-76
2022/06/01 14:41:25;;;;;;;4.35;3.28;;;;;;;;;;4363706;32;20027;-77
2022/06/01 14:43:53;;;;;;;6.00;2.60;;;;;;;;;;4363433;32;20123;-78
2022/06/01 14:46:19;;;;;;;4.07;3.30;;;;;;;;;;4362397;32;20026;-78
2022/06/01 14:48:44;;;;;;;5.32;2.92;;;;;;;;;;4362219;33;20089;-76
2022/06/01 14:51:13;;;;;;;4.55;2.97;;;;;;;;;;4362377;32;20085;-76
2022/06/01 14:53:40;;;;;;;6.32;3.40;;;;;;;;;;4362646;32;20103;-76
2022/06/01 14:56:06;;;;;;;6.30;3.85;;;;;;;;;;4362907;32;20057;-77
2022/06/01 14:58:37;;;;;;;6.28;3.55;;;;;;;;;;4362460;32;20083;-77
2022/06/01 15:01:18;;;;;;;8.48;3.55;;;;;;;;;;4348220;33;20039;-76
2022/06/01 15:03:56;;;;;;;4.05;2.97;;;;;;;;;;4363703;32;20032;-75
2022/06/01 15:06:24;;;;;;;5.35;3.17;;;;;;;;;;4362761;32;20203;-75
2022/06/01 15:08:50;;;;;;;6.97;3.78;;;;;;;;;;4362377;32;20028;-77
2022/06/01 15:11:17;;;;;;;8.98;3.87;;;;;;;;;;4348809;33;20019;-76
2022/06/01 15:14:00;;;;;;;5.10;3.67;;;;;;;;;;4362883;33;20028;-76
2022/06/01 15:16:25;;;;;;;6.50;3.17;;;;;;;;;;4362478;32;20405;-75
2022/06/01 15:18:54;;;;;;;9.00;4.20;;;;;;;;;;4363373;32;20050;-77
2022/06/01 15:21:20;;;;;;;6.57;3.17;;;;;;;;;;4363226;32;20414;-76
2022/06/01 15:23:46;;;;;;;4.65;3.28;;;;;;;;;;4362593;32;20401;-78
2022/06/01 15:26:21;;;;;;;6.00;2.58;;;;;;;;;;4361858;32;20088;-76
2022/06/01 15:28:49;;;;;;;5.40;2.28;;;;;;;;;;4361945;32;20058;-77
2022/06/01 15:42:52;;;;;;;;;;;;;;;;;;;;;
2022/06/01 15:45:33;;;;;;;3.55;2.17;;;;;;;;;;4367222;32;20032;-77
2022/06/01 15:48:08;;;;;;;6.03;2.58;;;;;;;;;;4359588;32;20351;-77
2022/06/01 15:50:48;;;;;;;3.50;2.10;;;;;;;;;;4361399;32;20031;-77
2022/06/01 15:53:13;;;;;;;6.50;3.33;;;;;;;;;;4359389;32;20462;-77
2022/06/01 16:01:52;;;;;;;3.20;2.58;;;;;;;;;;4330480;33;20047;-77
2022/06/01 16:04:20;;;;;;;5.07;2.30;;;;;;;;;;4358855;33;20402;-76
2022/06/01 16:06:45;;;;;;;3.10;2.17;;;;;;;;;;4360620;32;20299;-77
2022/06/01 16:09:13;;;;;;;4.15;2.45;;;;;;;;;;4360557;33;20101;-77
2022/06/01 16:11:43;;;;;;;4.37;2.12;;;;;;;;;;4362079;32;20023;-77